Aviation Digital Data Service (ADDS)

Output produced by METARs form (1544 UTC 20 May 2018)
found at http://aviationweather.gov/adds/metars/
 
KBTV 201447Z 2015/2112 32004KT P6SM VCSH BKN008 BKN015 
     FM201600 36007KT P6SM BKN015 
     FM201800 34012KT P6SM SCT035 
     FM210400 00000KT P6SM SKC